Latest Weather Observations for Gunnedah Airport

IDN60801

Issued at 8:32 pm EST Thursday 26 May 2016 (issued every 30 minutes, with the page automatically refreshed every 10 minutes)

About weather observations | Map of weather stations | Latest weather observations for NSW | Other Formats
Station Details ID: 055202 Name: GUNNEDAH AIRPORT AWS Lat: -30.95 Lon: 150.25 Height: 262.57 m
Data from the previous 72 hours. | See also: Recent months at Gunnedah Airport
Date/Time
EST
Temp
°C
App
Temp
°C
Dew
Point
Rel
Hum
%
Delta-T
°C
Wind Press
QNH
hPa
Press
MSL
hPa
Rain
since 9 am
mm
Dir
 
Spd
km/h
Gust
km/h
Spd
kts
Gust
kts
26/08:30pm 14.4 12.9 13.0 91 0.8 WNW 13 20 7 11 1008.0 1007.8 9.0
26/08:00pm 14.5 13.0 13.0 91 0.8 WNW 13 20 7 11 1007.6 1007.4 9.0
26/07:30pm 14.6 13.1 13.1 91 0.8 WNW 13 17 7 9 1007.4 1007.2 9.0
26/07:00pm 14.6 13.2 13.3 92 0.7 W 13 17 7 9 1007.4 1007.2 8.8
26/06:30pm 14.8 13.4 13.3 91 0.8 WNW 13 17 7 9 1007.1 1006.9 8.8
26/06:00pm 14.9 12.8 13.6 92 0.7 WNW 17 24 9 13 1007.2 1007.0 8.8
26/05:30pm 14.8 14.3 13.7 93 0.6 WNW 9 11 5 6 1006.5 1006.2 8.8
26/05:00pm 14.7 14.1 13.6 93 0.6 NW 9 11 5 6 1006.3 1006.0 8.8
26/04:30pm 14.6 14.0 13.5 93 0.6 WNW 9 15 5 8 1006.8 1006.6 7.8
26/04:00pm 14.4 13.7 13.3 93 0.6 NW 9 13 5 7 1006.6 1006.4 6.6
26/03:30pm 14.0 13.3 13.1 94 0.5 NNW 9 13 5 7 1007.0 1006.8 6.0
26/03:00pm 12.8 11.2 11.4 91 0.8 NW 11 15 6 8 1007.7 1007.5 5.2
26/02:30pm 12.7 10.9 10.9 89 1.0 NW 11 15 6 8 1007.8 1007.6 4.8
26/02:00pm 12.3 11.6 10.2 87 1.1 N 4 11 2 6 1007.4 1007.2 4.8
26/01:30pm 11.5 11.3 8.9 84 1.3 CALM 0 0 0 0 1008.3 1008.1 4.8
26/01:00pm 11.4 9.0 8.8 84 1.3 NNE 11 15 6 8 1009.0 1008.8 3.6
26/12:30pm 11.3 9.6 8.2 81 1.5 NE 7 9 4 5 1010.0 1009.9 3.0
26/12:00pm 11.1 8.0 7.4 78 1.8 N 13 17 7 9 1010.8 1010.6 2.8
26/11:30am 11.2 8.2 7.7 79 1.7 NNE 13 20 7 11 1011.4 1011.2 2.6
26/11:00am 10.6 5.9 7.7 82 1.4 NE 22 26 12 14 1012.2 1012.0 2.6
26/10:51am 11.2 9.1 8.1 81 1.5 NNW 9 19 5 10 1013.0 1012.8 2.6
26/10:30am 10.4 7.8 7.8 84 1.3 SSW 11 20 6 11 1015.1 1014.9 2.0
26/10:00am 10.8 8.7 5.8 71 2.3 SE 6 9 3 5 1013.4 1013.3 0.8
26/09:30am 11.3 8.0 4.3 62 3.2 SSE 11 17 6 9 1013.0 1012.8 0.0
26/09:00am 13.3 8.3 -1.4 36 6.0 S 15 19 8 10 1013.1 1013.0 0.0
26/08:30am 12.9 8.0 -0.7 39 5.6 SSE 15 19 8 10 1011.9 1011.7 0.0
26/08:00am 11.7 8.1 0.8 47 4.6 SSE 9 11 5 6 1012.0 1011.8 0.0
26/07:30am 9.8 6.2 0.4 52 3.9 ESE 9 11 5 6 1012.2 1012.0 0.0
26/07:00am 8.3 5.1 0.8 59 3.1 SE 7 7 4 4 1012.9 1012.7 0.0
26/06:30am 7.8 4.2 0.8 61 2.8 S 9 11 5 6 1013.4 1013.3 0.0
26/06:00am 9.1 6.1 0.8 56 3.4 SSE 6 7 3 4 1013.4 1013.3 0.0
26/05:30am 9.5 6.4 0.4 53 3.7 ESE 6 7 3 4 1013.2 1013.1 0.0
26/05:00am 9.6 6.7 1.3 56 3.5 E 6 13 3 7 1013.3 1013.2 0.0
26/04:30am 9.2 7.4 1.1 57 3.4 CALM 0 0 0 0 1013.9 1013.8 0.0
26/04:00am 8.6 5.6 2.2 64 2.7 S 7 7 4 4 1013.7 1013.6 0.0
26/03:30am 8.3 5.5 2.1 65 2.6 SE 6 9 3 5 1013.7 1013.6 0.0
26/03:00am 7.8 6.1 2.1 67 2.4 CALM 0 0 0 0 1013.8 1013.7 0.0
26/02:30am 7.4 5.7 1.7 67 2.4 CALM 0 0 0 0 1013.8 1013.7 0.0
26/02:00am 6.7 5.0 1.8 71 2.0 CALM 0 0 0 0 1014.1 1014.0 0.0
26/01:30am 6.1 4.3 1.2 71 2.0 CALM 0 0 0 0 1014.3 1014.1 0.0
26/01:00am 4.8 1.6 0.8 75 1.6 SSW 7 9 4 5 1014.8 1014.6 0.0
26/12:30am 5.6 2.8 -0.2 66 2.2 NE 4 7 2 4 1014.7 1014.5 0.0
26/12:00am 6.3 4.4 0.6 67 2.3 CALM 0 0 0 0 1015.4 1015.2 0.0
 
Date/Time
EST
Temp
°C
App
Temp
°C
Dew
Point
Rel
Hum
%
Delta-T
°C
Wind Press
QNH
hPa
Press
MSL
hPa
Rain
since 9 am
mm
Dir
 
Spd
km/h
Gust
km/h
Spd
kts
Gust
kts
25/11:30pm 7.1 5.3 1.4 67 2.3 CALM 0 0 0 0 1015.8 1015.6 0.0
25/11:00pm 6.5 4.7 1.2 69 2.1 CALM 0 0 0 0 1016.0 1015.8 0.0
25/10:30pm 6.2 4.4 1.5 72 1.9 CALM 0 0 0 0 1015.9 1015.7 0.0
25/10:00pm 5.8 3.9 0.8 70 2.0 CALM 0 0 0 0 1016.1 1015.9 0.0
25/09:30pm 6.0 4.1 0.3 67 2.2 CALM 0 0 0 0 1016.1 1015.9 0.0
25/09:00pm 5.4 2.5 -0.8 64 2.4 ENE 4 7 2 4 1016.5 1016.4 0.0
25/08:30pm 6.7 5.0 1.6 70 2.1 CALM 0 0 0 0 1016.5 1016.4 0.0
25/08:00pm 7.1 4.8 0.1 61 2.8 SSW 2 9 1 5 1016.5 1016.4 0.0
25/07:30pm 9.3 7.6 1.7 59 3.2 CALM 0 0 0 0 1016.2 1016.0 0.0
25/07:00pm 9.2 6.1 0.1 53 3.7 SSW 6 7 3 4 1016.2 1016.0 0.0
25/06:30pm 11.1 7.8 -1.6 41 5.1 ENE 6 6 3 3 1015.8 1015.6 0.0
25/06:00pm 12.5 9.2 -1.4 38 5.6 S 6 7 3 4 1015.6 1015.4 0.0
25/05:30pm 14.2 11.0 -0.3 37 6.1 WSW 6 7 3 4 1015.6 1015.4 0.0
25/05:00pm 16.2 12.7 -1.4 30 7.4 W 7 9 4 5 1015.4 1015.2 0.0
25/04:30pm 18.4 15.1 -1.4 26 8.5 NW 6 7 3 4 1015.3 1015.1 0.0
25/04:00pm 20.5 16.9 -1.9 22 9.7 WNW 7 11 4 6 1015.2 1015.0 0.0
25/03:30pm 19.8 15.8 -1.9 23 9.3 W 9 11 5 6 1015.6 1015.4 0.0
25/03:00pm 19.5 16.2 -1.6 24 9.1 W 6 11 3 6 1015.7 1015.5 0.0
25/02:30pm 19.9 16.0 -1.8 23 9.4 WNW 9 15 5 8 1016.1 1015.9 0.0
25/02:00pm 19.6 16.3 -1.5 24 9.1 NNW 6 9 3 5 1016.1 1015.9 0.0
25/01:30pm 19.4 16.0 -0.6 26 8.8 E 7 13 4 7 1016.5 1016.4 0.0
25/01:00pm 18.2 14.9 -0.1 29 8.0 ESE 7 11 4 6 1016.8 1016.7 0.0
25/12:30pm 17.5 15.3 1.1 33 7.4 ENE 2 11 1 6 1017.5 1017.4 0.0
25/12:00pm 16.9 14.2 3.6 41 6.2 E 7 15 4 8 1017.9 1017.8 0.0
25/11:30am 15.4 11.9 3.5 45 5.5 ESE 11 15 6 8 1018.7 1018.5 0.0
25/11:00am 14.0 11.3 3.5 49 4.8 SSE 7 11 4 6 1019.6 1019.5 0.0
25/10:30am 13.1 9.6 3.7 53 4.3 SE 11 17 6 9 1020.2 1020.1 0.0
25/10:00am 12.4 9.0 3.9 56 3.9 ESE 11 13 6 7 1020.2 1020.1 0.0
25/09:30am 10.9 7.4 3.5 60 3.3 ESE 11 13 6 7 1020.5 1020.4 0.0
25/09:00am 9.2 6.0 3.0 65 2.7 ESE 9 13 5 7 1020.6 1020.5 0.0
25/08:30am 7.3 3.7 3.2 75 1.8 SE 11 15 6 8 1020.5 1020.4 0.0
25/08:00am 4.6 1.3 2.3 85 0.9 SE 9 13 5 7 1020.6 1020.5 0.0
25/07:30am 2.6 -1.3 1.3 91 0.5 SE 11 11 6 6 1020.2 1020.1 0.0
25/07:00am 0.1 -4.1 -1.0 92 0.4 SE 11 13 6 7 1020.3 1020.2 0.0
25/06:30am 0.2 -1.9 -0.9 92 0.4 CALM 0 0 0 0 1020.2 1020.1 0.0
25/06:00am -0.5 -3.5 -2.1 89 0.5 SSE 4 7 2 4 1020.0 1019.9 0.0
25/05:30am 0.0 -3.5 -1.4 90 0.5 SSE 7 9 4 5 1019.7 1019.6 0.0
25/05:00am 2.0 -1.0 1.0 93 0.4 SE 6 7 3 4 1019.5 1019.3 0.0
25/04:30am 0.9 -2.5 -0.5 90 0.5 E 7 9 4 5 1019.5 1019.3 0.0
25/04:00am 1.5 -0.5 0.0 90 0.6 CALM 0 0 0 0 1019.5 1019.3 0.0
25/03:30am 1.5 -0.6 -0.6 86 0.8 CALM 0 0 0 0 1019.4 1019.2 0.0
25/03:00am 1.2 -2.1 -1.2 84 0.9 W 6 6 3 3 1019.6 1019.5 0.0
25/02:30am 3.3 0.2 1.2 86 0.8 WNW 7 9 4 5 1019.7 1019.6 0.0
25/02:00am 3.2 0.1 1.3 87 0.7 SW 7 11 4 6 1019.8 1019.7 0.0
25/01:30am 2.7 0.7 -0.4 80 1.2 CALM 0 0 0 0 1020.1 1020.0 0.0
25/01:00am 3.8 1.5 0.7 80 1.2 NNE 2 6 1 3 1020.3 1020.2 0.0
25/12:30am 6.1 2.8 2.2 76 1.6 WNW 9 13 5 7 1020.1 1020.0 0.0
25/12:00am 4.7 2.8 0.7 75 1.6 CALM 0 0 0 0 1020.5 1020.4 0.0
 
Date/Time
EST
Temp
°C
App
Temp
°C
Dew
Point
Rel
Hum
%
Delta-T
°C
Wind Press
QNH
hPa
Press
MSL
hPa
Rain
since 9 am
mm
Dir
 
Spd
km/h
Gust
km/h
Spd
kts
Gust
kts
24/11:30pm 7.6 4.0 3.1 73 1.9 NW 11 15 6 8 1020.5 1020.4 0.0
24/11:00pm 5.8 2.3 1.2 72 1.8 N 9 13 5 7 1020.5 1020.4 0.0
24/10:30pm 6.3 3.0 0.4 66 2.3 NNW 7 11 4 6 1020.5 1020.4 0.0
24/10:00pm 8.6 5.7 2.8 67 2.5 NW 7 9 4 5 1020.6 1020.5 0.0
24/09:30pm 8.2 4.1 2.4 67 2.5 W 13 20 7 11 1020.5 1020.4 0.0
24/09:00pm 9.2 3.8 2.5 63 2.9 W 20 22 11 12 1020.4 1020.3 0.0
24/08:30pm 10.1 5.4 3.2 62 3.0 W 17 20 9 11 1020.5 1020.4 0.0
24/08:00pm 9.6 5.9 2.5 61 3.0 W 11 15 6 8 1020.6 1020.5 0.0
24/07:30pm 11.4 8.1 2.4 54 3.9 W 9 11 5 6 1020.4 1020.3 0.0
24/07:00pm 11.7 8.0 2.5 53 4.0 WSW 11 17 6 9 1020.2 1020.1 0.0
24/06:30pm 12.3 7.9 2.5 51 4.3 WSW 15 19 8 10 1019.8 1019.7 0.0
24/06:00pm 13.2 9.9 2.4 48 4.8 SW 9 11 5 6 1019.5 1019.3 0.0
24/05:30pm 13.5 9.0 2.1 46 5.0 W 15 17 8 9 1019.1 1018.9 0.0
24/05:00pm 15.6 11.4 1.7 39 6.2 W 13 17 7 9 1019.1 1018.9 0.0
24/04:30pm 17.7 11.7 1.2 33 7.4 WSW 22 30 12 16 1019.0 1018.8 0.0
24/04:00pm 18.7 13.6 0.8 30 8.0 SW 17 24 9 13 1018.9 1018.7 0.0
24/03:30pm 19.1 13.0 0.2 28 8.4 WSW 22 32 12 17 1018.8 1018.6 0.0
24/03:00pm 19.5 13.1 1.0 29 8.4 WSW 24 33 13 18 1018.8 1018.6 0.0
24/02:30pm 19.3 14.1 0.4 28 8.5 WSW 17 26 9 14 1018.5 1018.3 0.0
24/02:00pm 19.3 13.8 1.8 31 8.1 W 20 30 11 16 1018.6 1018.4 0.0
24/01:30pm 19.1 14.9 1.6 31 8.0 SW 13 24 7 13 1018.9 1018.7 0.0
24/01:00pm 18.7 15.0 2.1 33 7.7 WNW 11 19 6 10 1019.2 1019.0 0.0
24/12:30pm 18.1 14.6 1.2 32 7.6 SW 9 20 5 11 1019.7 1019.6 0.0
24/12:00pm 17.6 14.2 2.0 35 7.1 NE 9 15 5 8 1020.2 1020.1 0.0
24/11:30am 16.9 13.9 1.8 36 6.8 S 7 15 4 8 1021.0 1020.9 0.0
24/11:00am 16.0 13.0 1.0 36 6.6 NE 6 13 3 7 1021.7 1021.6 0.0
24/10:30am 15.0 11.8 -0.3 35 6.5 NNW 6 9 3 5 1022.1 1022.0 0.0
24/10:00am 13.9 10.9 1.9 44 5.3 WNW 7 11 4 6 1022.4 1022.2 0.0
24/09:30am 11.7 8.6 1.6 50 4.3 WNW 7 11 4 6 1022.1 1022.0 0.0
24/09:00am 9.5 6.0 1.2 56 3.5 WNW 9 11 5 6 1022.1 1022.0 0.0
24/08:30am 8.3 4.9 1.7 63 2.8 NW 9 11 5 6 1021.8 1021.7 0.0
24/08:00am 7.0 4.6 1.9 70 2.1 NNW 4 9 2 5 1021.7 1021.6 0.0
24/07:30am 3.7 1.9 0.9 82 1.1 CALM 0 0 0 0 1021.8 1021.7 0.0
24/07:00am 0.9 -1.3 -1.5 84 0.8 CALM 0 0 0 0 1021.6 1021.5 0.0
24/06:30am 0.7 -1.5 -1.7 84 0.9 CALM 0 0 0 0 1021.5 1021.4 0.0
24/06:00am 1.2 -2.1 -1.0 85 0.8 ENE 6 7 3 4 1021.4 1021.3 0.0
24/05:30am 1.4 -2.0 -1.7 80 1.1 ENE 6 9 3 5 1021.2 1021.1 0.0
24/05:00am 2.1 -0.4 -1.3 78 1.2 ENE 2 7 1 4 1021.0 1020.9 0.0
24/04:30am 2.6 0.4 -1.4 75 1.5 CALM 0 0 0 0 1021.0 1020.9 0.0
24/04:00am 2.4 -0.2 -1.7 74 1.5 NE 2 7 1 4 1020.8 1020.7 0.0
24/03:30am 3.1 0.6 -1.3 73 1.6 NE 2 7 1 4 1020.9 1020.8 0.0
24/03:00am 4.6 2.5 -1.0 67 2.1 CALM 0 9 0 5 1020.9 1020.8 0.0
24/02:30am 8.4 5.2 0.6 58 3.2 ESE 7 11 4 6 1020.8 1020.7 0.0
24/02:00am 10.0 6.5 1.1 54 3.7 NE 9 11 5 6 1020.9 1020.8 0.0
24/01:30am 11.2 7.4 1.7 52 4.1 SW 11 20 6 11 1020.7 1020.6 0.0
24/01:00am 11.1 6.1 1.1 50 4.2 SSW 17 20 9 11 1020.7 1020.6 0.0
24/12:30am 11.5 6.8 0.9 48 4.5 SW 15 17 8 9 1021.0 1020.9 0.0
24/12:00am 11.6 6.8 0.4 46 4.7 SW 15 19 8 10 1021.0 1020.9 0.0
 
Date/Time
EST
Temp
°C
App
Temp
°C
Dew
Point
Rel
Hum
%
Delta-T
°C
Wind Press
QNH
hPa
Press
MSL
hPa
Rain
since 9 am
mm
Dir
 
Spd
km/h
Gust
km/h
Spd
kts
Gust
kts
23/11:30pm 12.5 7.8 0.9 45 5.0 SW 15 20 8 11 1021.0 1020.9 0.0
23/11:00pm 13.5 7.5 0.9 42 5.4 SW 22 32 12 17 1020.9 1020.8 0.0
23/10:30pm 13.8 7.8 0.8 41 5.6 SSW 22 30 12 16 1020.9 1020.8 0.0
23/10:00pm 13.7 8.5 0.4 40 5.7 SSW 17 22 9 12 1020.8 1020.7 0.0
23/09:30pm 14.1 8.9 0.0 38 6.0 SSW 17 26 9 14 1020.5 1020.4 0.0
23/09:00pm 15.0 10.2 0.4 37 6.3 SSW 15 20 8 11 1020.3 1020.2 0.0

Other Formats:

Comma delimited format used in spreadsheet applications
http://www.bom.gov.au/fwo/IDN60801/IDN60801.95740.axf

JavaScript Object Notation format (JSON) in row-major order
http://www.bom.gov.au/fwo/IDN60801/IDN60801.95740.json